KEKN/EKN METAR and TAF weather

Enter ICAO airport designator
Station Type Date Time Source
KEKN METAR 2018/04/26 14:51 UTC NOAA

KEKN 261451Z AUTO 33003KT 10SM CLR 11/03 A2995 RMK AO2 SLP148 T01060033 51005 TSNO


Station Type Date Time Source
KEKN Decoded METAR 2018/04/26 14:51 UTC NOAA

JENNINGS RANDOLPH FIELD, WV, United States (KEKN) 38-53N 079-51W 603M
Apr 26, 2018 - 10:51 AM EDT / 2018.04.26 1451 UTC
Wind: from the NNW (330 degrees) at 3 MPH (3 KT):0
Visibility: 10 mile(s):0
Sky conditions: clear
Temperature: 51.1 F (10.6 C)
Dew Point: 37.9 F (3.3 C)
Relative Humidity: 60%
Pressure (altimeter): 29.95 in. Hg (1014 hPa)
Pressure tendency: 0.01 inches (0.5 hPa) higher than three hours ago
ob: KEKN 261451Z AUTO 33003KT 10SM CLR 11/03 A2995 RMK AO2 SLP148 T01060033 51005 TSNO
cycle: 15

Station Type Date Time Source
KEKN TAF 2018/04/26 12:39 UTC NOAA

TAF KEKN 261137Z 2612/2712 00000KT 1SM BR BKN005
FM261400 00000KT P6SM FEW035
FM261600 31004KT P6SM FEW140
FM270000 00000KT P6SM BKN070


Example: see airport list